createdAt,value
2023-01-15T00:00:40.085Z, 37.90
2023-01-15T00:01:40.093Z, 37.84
2023-01-15T00:02:40.152Z, 37.86
2023-01-15T00:03:40.123Z, 37.84
2023-01-15T00:04:40.130Z, 37.86
2023-01-15T00:05:40.129Z, 37.83
2023-01-15T00:06:40.146Z, 37.83
2023-01-15T00:07:40.161Z, 37.83
2023-01-15T00:08:40.166Z, 37.80
2023-01-15T00:09:40.172Z, 37.84
2023-01-15T00:10:40.174Z, 37.80
2023-01-15T00:11:40.275Z, 37.74
2023-01-15T00:12:40.241Z, 37.72
2023-01-15T00:13:40.243Z, 37.80
2023-01-15T00:14:40.246Z, 37.72
2023-01-15T00:15:40.313Z, 37.71
2023-01-15T00:16:40.322Z, 37.66
2023-01-15T00:17:40.287Z, 37.62
2023-01-15T00:18:40.382Z, 37.61
2023-01-15T00:19:40.353Z, 37.63
2023-01-15T00:20:40.395Z, 37.63
2023-01-15T00:21:40.378Z, 37.54
2023-01-15T00:22:40.430Z, 37.48
2023-01-15T00:23:40.400Z, 37.46
2023-01-15T00:24:40.400Z, 37.47
2023-01-15T00:25:40.408Z, 37.50
2023-01-15T00:26:40.435Z, 37.45
2023-01-15T00:27:40.453Z, 37.41
2023-01-15T00:28:40.429Z, 37.40
2023-01-15T00:29:40.463Z, 37.34
2023-01-15T00:30:40.465Z, 37.42
2023-01-15T00:31:40.550Z, 37.39
2023-01-15T00:32:40.519Z, 37.36
2023-01-15T00:33:40.537Z, 37.31
2023-01-15T00:34:40.542Z, 37.30
2023-01-15T00:35:40.546Z, 37.32
2023-01-15T00:36:40.541Z, 37.31
2023-01-15T00:37:40.593Z, 37.25
2023-01-15T00:38:40.561Z, 37.25
2023-01-15T00:39:40.574Z, 37.26
2023-01-15T00:40:40.581Z, 37.22
2023-01-15T00:41:40.588Z, 37.23
2023-01-15T00:42:40.650Z, 37.24
2023-01-15T00:43:40.615Z, 37.24
2023-01-15T00:44:40.626Z, 37.29
2023-01-15T00:45:40.635Z, 37.23
2023-01-15T00:46:40.719Z, 37.20
2023-01-15T00:47:40.680Z, 37.13
2023-01-15T00:48:40.750Z, 37.11
2023-01-15T00:49:40.711Z, 37.07
2023-01-15T00:50:40.715Z, 37.03
2023-01-15T00:51:40.721Z, 37.07
2023-01-15T00:52:40.781Z, 37.07
2023-01-15T00:53:40.779Z, 37.07
2023-01-15T00:54:40.766Z, 37.03
2023-01-15T00:55:40.769Z, 36.95
2023-01-15T00:56:40.767Z, 36.94
2023-01-15T00:57:40.846Z, 36.89
2023-01-15T00:58:40.822Z, 36.86
2023-01-15T00:59:40.857Z, 36.91
2023-01-15T01:00:40.886Z, 36.91
2023-01-15T01:01:40.996Z, 36.89
2023-01-15T01:02:40.897Z, 36.83
2023-01-15T01:03:40.899Z, 36.81
2023-01-15T01:04:40.856Z, 36.84
2023-01-15T01:05:40.883Z, 36.85
2023-01-15T01:06:40.877Z, 36.83
2023-01-15T01:07:40.871Z, 36.81
2023-01-15T01:08:40.962Z, 36.76
2023-01-15T01:09:40.937Z, 36.76
2023-01-15T01:10:40.970Z, 36.84
2023-01-15T01:11:40.959Z, 36.76
2023-01-15T01:12:41.003Z, 36.69
2023-01-15T01:13:40.981Z, 36.71
2023-01-15T01:14:40.971Z, 36.69
2023-01-15T01:15:41.028Z, 36.70
2023-01-15T01:16:40.995Z, 36.71
2023-01-15T01:17:41.049Z, 36.66
2023-01-15T01:18:41.033Z, 36.61
2023-01-15T01:19:41.031Z, 36.58
2023-01-15T01:20:41.045Z, 36.60
2023-01-15T01:21:41.044Z, 36.58
2023-01-15T01:22:41.114Z, 36.54
2023-01-15T01:23:41.049Z, 36.53
2023-01-15T01:24:41.100Z, 36.50
2023-01-15T01:25:41.084Z, 36.53
2023-01-15T01:26:41.158Z, 36.52
2023-01-15T01:27:41.126Z, 36.49
2023-01-15T01:28:41.127Z, 36.50
2023-01-15T01:29:41.145Z, 36.48
2023-01-15T01:30:41.126Z, 36.46
2023-01-15T01:31:41.338Z, 36.44
2023-01-15T01:32:41.184Z, 36.35
2023-01-15T01:33:41.186Z, 36.36
2023-01-15T01:34:41.202Z, 36.32
2023-01-15T01:35:41.184Z, 36.27
2023-01-15T01:36:41.206Z, 36.24
2023-01-15T01:37:41.218Z, 36.28
2023-01-15T01:38:41.225Z, 36.28
2023-01-15T01:39:41.236Z, 36.26
2023-01-15T01:40:41.249Z, 36.22
2023-01-15T01:41:41.263Z, 36.23
2023-01-15T01:42:41.277Z, 36.24
2023-01-15T01:43:41.289Z, 36.21
2023-01-15T01:44:41.338Z, 36.20
2023-01-15T01:45:41.327Z, 36.18
2023-01-15T01:46:41.364Z, 36.12
2023-01-15T01:47:41.360Z, 36.15
2023-01-15T01:48:41.395Z, 36.07
2023-01-15T01:49:41.381Z, 36.09
2023-01-15T01:50:41.419Z, 36.10
2023-01-15T01:51:41.402Z, 36.09
2023-01-15T01:52:41.409Z, 36.06
2023-01-15T01:53:41.419Z, 36.04
2023-01-15T01:54:41.437Z, 36.04
2023-01-15T01:55:41.448Z, 36.02
2023-01-15T01:56:41.454Z, 36.04
2023-01-15T01:57:41.511Z, 36.00
2023-01-15T01:58:41.493Z, 35.99
2023-01-15T01:59:41.549Z, 35.98
2023-01-15T02:00:41.667Z, 35.99
2023-01-15T02:01:41.716Z, 35.95
2023-01-15T02:02:41.652Z, 35.92
2023-01-15T02:03:41.571Z, 35.90
2023-01-15T02:04:41.611Z, 35.88
2023-01-15T02:05:41.595Z, 35.86
2023-01-15T02:06:41.592Z, 35.87
2023-01-15T02:07:41.706Z, 35.83
2023-01-15T02:08:41.635Z, 35.81
2023-01-15T02:09:41.689Z, 35.77
2023-01-15T02:10:41.749Z, 35.82
2023-01-15T02:11:41.669Z, 35.80
2023-01-15T02:12:41.687Z, 35.77
2023-01-15T02:13:41.705Z, 35.72
2023-01-15T02:14:41.700Z, 35.79
2023-01-15T02:15:41.689Z, 35.75
2023-01-15T02:16:41.866Z, 35.73
2023-01-15T02:17:41.767Z, 35.74
2023-01-15T02:18:41.769Z, 35.71
2023-01-15T02:19:41.776Z, 35.72
2023-01-15T02:20:41.769Z, 35.72
2023-01-15T02:21:41.767Z, 35.68
2023-01-15T02:22:41.784Z, 35.64
2023-01-15T02:23:41.808Z, 35.66
2023-01-15T02:24:41.788Z, 35.60
2023-01-15T02:25:41.807Z, 35.66
2023-01-15T02:26:41.823Z, 35.69
2023-01-15T02:27:41.833Z, 35.65
2023-01-15T02:28:41.840Z, 35.63
2023-01-15T02:29:41.855Z, 35.58
2023-01-15T02:30:41.850Z, 35.54
2023-01-15T02:31:42.067Z, 35.51
2023-01-15T02:32:41.923Z, 35.57
2023-01-15T02:33:41.934Z, 35.49
2023-01-15T02:34:41.915Z, 35.49
2023-01-15T02:35:41.927Z, 35.49
2023-01-15T02:36:41.919Z, 35.46
2023-01-15T02:37:41.931Z, 35.43
2023-01-15T02:38:42.000Z, 35.39
2023-01-15T02:39:41.995Z, 35.40
2023-01-15T02:40:42.030Z, 35.39
2023-01-15T02:41:42.012Z, 35.38
2023-01-15T02:42:42.066Z, 35.36
2023-01-15T02:43:42.034Z, 35.33
2023-01-15T02:44:42.061Z, 35.35
2023-01-15T02:45:42.102Z, 35.27
2023-01-15T02:46:42.042Z, 35.32
2023-01-15T02:47:42.128Z, 35.36
2023-01-15T02:48:42.148Z, 35.35
2023-01-15T02:49:42.126Z, 35.26
2023-01-15T02:50:42.187Z, 35.26
2023-01-15T02:51:42.156Z, 35.25
2023-01-15T02:52:42.192Z, 35.25
2023-01-15T02:53:42.171Z, 35.24
2023-01-15T02:54:42.233Z, 35.24
2023-01-15T02:55:42.233Z, 35.21
2023-01-15T02:56:42.242Z, 35.20
2023-01-15T02:57:42.224Z, 35.20
2023-01-15T02:58:42.227Z, 35.16
2023-01-15T02:59:42.220Z, 35.16
2023-01-15T03:00:42.325Z, 35.14
2023-01-15T03:01:42.432Z, 35.12
2023-01-15T03:02:42.321Z, 35.10
2023-01-15T03:03:42.267Z, 35.09
2023-01-15T03:04:42.272Z, 35.10
2023-01-15T03:05:42.341Z, 35.07
2023-01-15T03:06:42.309Z, 35.10
2023-01-15T03:07:42.395Z, 35.10
2023-01-15T03:08:42.359Z, 35.06
2023-01-15T03:09:42.388Z, 35.07
2023-01-15T03:10:42.364Z, 35.04
2023-01-15T03:11:42.359Z, 35.01
2023-01-15T03:12:42.362Z, 34.99
2023-01-15T03:13:42.459Z, 34.99
2023-01-15T03:14:42.452Z, 34.96
2023-01-15T03:15:42.451Z, 34.93
2023-01-15T03:16:42.499Z, 34.93
2023-01-15T03:17:42.451Z, 34.93
2023-01-15T03:18:42.479Z, 34.90
2023-01-15T03:19:42.466Z, 34.88
2023-01-15T03:20:42.553Z, 34.87
2023-01-15T03:21:42.517Z, 34.87
2023-01-15T03:22:42.557Z, 34.93
2023-01-15T03:23:42.547Z, 34.94
2023-01-15T03:24:42.625Z, 34.89
2023-01-15T03:25:42.611Z, 34.86
2023-01-15T03:26:42.600Z, 34.89
2023-01-15T03:27:42.597Z, 34.88
2023-01-15T03:28:42.588Z, 34.82
2023-01-15T03:29:42.644Z, 34.78
2023-01-15T03:30:42.680Z, 34.80
2023-01-15T03:31:42.617Z, 34.80
2023-01-15T03:32:42.623Z, 34.82
2023-01-15T03:33:42.620Z, 34.77
2023-01-15T03:34:42.724Z, 34.74
2023-01-15T03:35:42.693Z, 34.72
2023-01-15T03:36:42.741Z, 34.70
2023-01-15T03:37:42.707Z, 34.70
2023-01-15T03:38:42.762Z, 34.66
2023-01-15T03:39:42.732Z, 34.64
2023-01-15T03:40:42.714Z, 34.64
2023-01-15T03:41:42.741Z, 34.68
2023-01-15T03:42:42.720Z, 34.64
2023-01-15T03:43:42.775Z, 34.62
2023-01-15T03:44:42.868Z, 34.61
2023-01-15T03:45:42.853Z, 34.53
2023-01-15T03:46:42.803Z, 34.53
2023-01-15T03:47:42.844Z, 34.52
2023-01-15T03:48:42.836Z, 34.46
2023-01-15T03:49:42.817Z, 34.43
2023-01-15T03:50:42.855Z, 34.43
2023-01-15T03:51:42.838Z, 34.47
2023-01-15T03:52:42.859Z, 34.43
2023-01-15T03:53:42.909Z, 34.41
2023-01-15T03:54:42.933Z, 34.38
2023-01-15T03:55:42.901Z, 34.31
2023-01-15T03:56:42.965Z, 34.37
2023-01-15T03:57:42.931Z, 34.36
2023-01-15T03:58:42.999Z, 34.35
2023-01-15T03:59:42.975Z, 34.33
2023-01-15T04:00:42.970Z, 34.34
2023-01-15T04:01:43.054Z, 34.38
2023-01-15T04:02:42.980Z, 34.39
2023-01-15T04:03:42.992Z, 34.32
2023-01-15T04:04:43.017Z, 34.29
2023-01-15T04:05:43.085Z, 34.33
2023-01-15T04:06:43.067Z, 34.33
2023-01-15T04:07:43.079Z, 34.32
2023-01-15T04:08:43.061Z, 34.29
2023-01-15T04:09:43.147Z, 34.29
2023-01-15T04:10:43.106Z, 34.29
2023-01-15T04:11:43.110Z, 34.28
2023-01-15T04:12:43.170Z, 34.31
2023-01-15T04:13:43.144Z, 34.30
2023-01-15T04:14:43.231Z, 34.28
2023-01-15T04:15:43.193Z, 34.27
2023-01-15T04:16:43.239Z, 34.20
2023-01-15T04:17:43.208Z, 34.18
2023-01-15T04:18:43.267Z, 34.22
2023-01-15T04:19:43.250Z, 34.18
2023-01-15T04:20:43.243Z, 34.17
2023-01-15T04:21:43.239Z, 34.15
2023-01-15T04:22:43.248Z, 34.07
2023-01-15T04:23:43.349Z, 34.08
2023-01-15T04:24:43.301Z, 34.11
2023-01-15T04:25:43.355Z, 34.10
2023-01-15T04:26:43.320Z, 34.06
2023-01-15T04:27:43.372Z, 34.09
2023-01-15T04:28:43.363Z, 34.07
2023-01-15T04:29:43.355Z, 34.08
2023-01-15T04:30:43.548Z, 34.05
2023-01-15T04:31:43.372Z, 35.29
2023-01-15T04:32:43.380Z, 35.99
2023-01-15T04:33:43.379Z, 36.10
2023-01-15T04:34:43.381Z, 36.04
2023-01-15T04:35:43.450Z, 35.89
2023-01-15T04:36:43.453Z, 35.66
2023-01-15T04:37:43.493Z, 35.34
2023-01-15T04:38:43.453Z, 34.95
2023-01-15T04:39:43.444Z, 34.33
2023-01-15T04:40:43.495Z, 32.54
2023-01-15T04:41:43.484Z, 29.78
2023-01-15T04:42:43.506Z, 27.35
2023-01-15T04:43:43.481Z, 28.01
2023-01-15T04:44:43.505Z, 32.21
2023-01-15T04:45:43.501Z, 35.59
2023-01-15T04:46:43.515Z, 37.79
2023-01-15T04:47:43.513Z, 39.20
2023-01-15T04:48:43.537Z, 40.97
2023-01-15T04:49:43.529Z, 43.04
2023-01-15T04:50:43.563Z, 41.88
2023-01-15T04:51:43.607Z, 39.56
2023-01-15T04:52:43.569Z, 37.37
2023-01-15T04:53:43.574Z, 35.36
2023-01-15T04:54:43.585Z, 33.83
2023-01-15T04:55:43.671Z, 32.48
2023-01-15T04:56:43.639Z, 30.73
2023-01-15T04:57:43.631Z, 29.05
2023-01-15T04:58:43.632Z, 29.42
2023-01-15T04:59:43.648Z, 34.88
2023-01-15T05:00:43.657Z, 38.99
2023-01-15T05:01:57.988Z, 42.00
2023-01-15T05:02:43.707Z, 43.69
2023-01-15T05:03:43.691Z, 44.80
2023-01-15T05:04:43.723Z, 46.94
2023-01-15T05:05:43.702Z, 49.93
2023-01-15T05:06:43.706Z, 53.53
2023-01-15T05:07:43.752Z, 57.31
2023-01-15T05:08:43.773Z, 61.00
2023-01-15T05:09:43.795Z, 66.38
2023-01-15T05:10:43.771Z, 52.27
2023-01-15T05:11:43.817Z, 53.08
2023-01-15T05:12:43.800Z, 54.25
2023-01-15T05:13:43.838Z, 56.08
2023-01-15T05:14:43.812Z, 58.69
2023-01-15T05:15:43.852Z, 62.07
2023-01-15T05:16:43.824Z, 64.17
2023-01-15T05:17:43.819Z, 52.58
2023-01-15T05:18:43.829Z, 53.72
2023-01-15T05:19:43.830Z, 54.88
2023-01-15T05:20:43.843Z, 56.81
2023-01-15T05:21:43.877Z, 59.55
2023-01-15T05:22:43.867Z, 67.52
2023-01-15T05:23:43.885Z, 57.41
2023-01-15T05:24:43.964Z, 53.41
2023-01-15T05:25:43.934Z, 54.73
2023-01-15T05:26:43.941Z, 55.76
2023-01-15T05:27:43.951Z, 56.44
2023-01-15T05:28:43.947Z, 56.83
2023-01-15T05:29:43.979Z, 58.28
2023-01-15T05:30:44.058Z, 57.34
2023-01-15T05:31:43.999Z, 55.74
2023-01-15T05:32:44.016Z, 54.28
2023-01-15T05:33:44.109Z, 53.54
2023-01-15T05:34:44.067Z, 52.97
2023-01-15T05:35:44.078Z, 52.03
2023-01-15T05:36:44.074Z, 51.06
2023-01-15T05:37:44.077Z, 50.24
2023-01-15T05:38:44.173Z, 49.48
2023-01-15T05:39:44.128Z, 48.77
2023-01-15T05:40:44.192Z, 48.14
2023-01-15T05:41:44.180Z, 47.52
2023-01-15T05:42:44.227Z, 46.92
2023-01-15T05:43:44.202Z, 46.35
2023-01-15T05:44:44.214Z, 45.74
2023-01-15T05:45:44.257Z, 45.16
2023-01-15T05:46:44.235Z, 44.54
2023-01-15T05:47:44.308Z, 43.94
2023-01-15T05:48:44.290Z, 43.35
2023-01-15T05:49:44.291Z, 42.80
2023-01-15T05:50:44.299Z, 42.27
2023-01-15T05:51:44.337Z, 41.78
2023-01-15T05:52:44.331Z, 41.33
2023-01-15T05:53:44.364Z, 40.89
2023-01-15T05:54:44.344Z, 40.39
2023-01-15T05:55:44.364Z, 39.95
2023-01-15T05:56:44.454Z, 39.56
2023-01-15T05:57:44.435Z, 39.19
2023-01-15T05:58:44.437Z, 38.81
2023-01-15T05:59:44.432Z, 38.50
2023-01-15T06:00:44.441Z, 38.24
2023-01-15T06:01:44.508Z, 37.94
2023-01-15T06:02:44.549Z, 37.59
2023-01-15T06:03:44.536Z, 37.21
2023-01-15T06:04:44.488Z, 36.73
2023-01-15T06:05:44.543Z, 36.09
2023-01-15T06:06:44.537Z, 35.30
2023-01-15T06:07:44.554Z, 34.36
2023-01-15T06:08:44.561Z, 34.64
2023-01-15T06:09:44.561Z, 40.17
2023-01-15T06:10:44.562Z, 45.34
2023-01-15T06:11:44.569Z, 46.66
2023-01-15T06:12:44.592Z, 45.17
2023-01-15T06:13:44.605Z, 44.01
2023-01-15T06:14:44.690Z, 43.04
2023-01-15T06:15:44.691Z, 41.97
2023-01-15T06:16:44.742Z, 42.02
2023-01-15T06:17:44.689Z, 41.93
2023-01-15T06:18:44.684Z, 41.89
2023-01-15T06:19:44.752Z, 41.68
2023-01-15T06:20:44.740Z, 41.46
2023-01-15T06:21:44.804Z, 41.26
2023-01-15T06:22:44.770Z, 41.11
2023-01-15T06:23:44.819Z, 40.95
2023-01-15T06:24:44.791Z, 40.82
2023-01-15T06:25:44.778Z, 40.70
2023-01-15T06:26:44.814Z, 40.59
2023-01-15T06:27:44.795Z, 40.47
2023-01-15T06:28:44.881Z, 40.32
2023-01-15T06:29:44.847Z, 40.17
2023-01-15T06:30:44.906Z, 40.04
2023-01-15T06:31:44.957Z, 39.89
2023-01-15T06:32:44.882Z, 39.76
2023-01-15T06:33:44.890Z, 39.65
2023-01-15T06:34:44.891Z, 39.50
2023-01-15T06:35:44.968Z, 39.38
2023-01-15T06:36:44.943Z, 39.25
2023-01-15T06:37:44.941Z, 39.12
2023-01-15T06:38:44.968Z, 38.99
2023-01-15T06:39:44.952Z, 38.90
2023-01-15T06:40:45.008Z, 38.79
2023-01-15T06:41:45.028Z, 38.67
2023-01-15T06:42:45.080Z, 38.55
2023-01-15T06:43:45.069Z, 38.46
2023-01-15T06:44:45.076Z, 38.37
2023-01-15T06:45:45.055Z, 38.26
2023-01-15T06:46:45.124Z, 38.16
2023-01-15T06:47:45.140Z, 38.08
2023-01-15T06:48:45.122Z, 37.94
2023-01-15T06:49:45.125Z, 37.83
2023-01-15T06:50:45.126Z, 37.76
2023-01-15T06:51:45.128Z, 37.67
2023-01-15T06:52:45.145Z, 37.60
2023-01-15T06:53:45.165Z, 37.49
2023-01-15T06:54:45.250Z, 37.40
2023-01-15T06:55:45.215Z, 37.31
2023-01-15T06:56:45.279Z, 37.21
2023-01-15T06:57:45.243Z, 37.16
2023-01-15T06:58:45.265Z, 37.08
2023-01-15T06:59:45.262Z, 36.99
2023-01-15T07:00:45.392Z, 36.91
2023-01-15T07:01:45.300Z, 36.83
2023-01-15T07:02:45.277Z, 36.73
2023-01-15T07:03:45.440Z, 36.62
2023-01-15T07:04:45.336Z, 36.61
2023-01-15T07:05:45.336Z, 36.54
2023-01-15T07:06:45.338Z, 36.44
2023-01-15T07:07:45.337Z, 36.39
2023-01-15T07:08:45.420Z, 36.29
2023-01-15T07:09:45.407Z, 36.23
2023-01-15T07:10:45.391Z, 36.13
2023-01-15T07:11:45.447Z, 36.07
2023-01-15T07:12:45.445Z, 36.03
2023-01-15T07:13:45.437Z, 35.98
2023-01-15T07:14:45.516Z, 35.91
2023-01-15T07:15:45.480Z, 35.85
2023-01-15T07:16:45.515Z, 35.77
2023-01-15T07:17:45.493Z, 35.72
2023-01-15T07:18:45.494Z, 35.68
2023-01-15T07:19:45.600Z, 35.60
2023-01-15T07:20:45.546Z, 35.54
2023-01-15T07:21:45.588Z, 35.51
2023-01-15T07:22:45.576Z, 35.46
2023-01-15T07:23:45.615Z, 35.43
2023-01-15T07:24:45.585Z, 35.38
2023-01-15T07:25:45.627Z, 35.31
2023-01-15T07:26:45.896Z, 35.25
2023-01-15T07:27:45.632Z, 35.16
2023-01-15T07:28:45.642Z, 35.12
2023-01-15T07:29:45.679Z, 35.09
2023-01-15T07:30:45.660Z, 35.06
2023-01-15T07:31:45.745Z, 35.01
2023-01-15T07:32:45.754Z, 34.96
2023-01-15T07:33:45.721Z, 34.91
2023-01-15T07:34:45.764Z, 34.82
2023-01-15T07:35:45.759Z, 34.82
2023-01-15T07:36:45.803Z, 34.78
2023-01-15T07:37:45.768Z, 34.74
2023-01-15T07:38:45.785Z, 34.68
2023-01-15T07:39:45.793Z, 34.65
2023-01-15T07:40:45.822Z, 34.54
2023-01-15T07:41:45.805Z, 34.49
2023-01-15T07:42:45.811Z, 34.44
2023-01-15T07:43:45.880Z, 34.41
2023-01-15T07:44:45.863Z, 34.39
2023-01-15T07:45:45.860Z, 34.37
2023-01-15T07:46:45.867Z, 34.33
2023-01-15T07:47:45.868Z, 34.31
2023-01-15T07:48:45.935Z, 34.24
2023-01-15T07:49:45.919Z, 34.16
2023-01-15T07:50:45.948Z, 34.14
2023-01-15T07:51:45.925Z, 34.12
2023-01-15T07:52:45.930Z, 34.10
2023-01-15T07:53:45.932Z, 34.06
2023-01-15T07:54:45.951Z, 33.99
2023-01-15T07:55:45.973Z, 33.95
2023-01-15T07:56:45.968Z, 33.92
2023-01-15T07:57:46.046Z, 33.93
2023-01-15T07:58:46.012Z, 33.91
2023-01-15T07:59:46.033Z, 33.88
2023-01-15T08:00:46.190Z, 33.86
2023-01-15T08:01:46.243Z, 33.84
2023-01-15T08:02:46.138Z, 33.79
2023-01-15T08:03:46.128Z, 33.74
2023-01-15T08:04:46.102Z, 33.71
2023-01-15T08:05:46.115Z, 33.69
2023-01-15T08:06:46.104Z, 33.67
2023-01-15T08:07:46.114Z, 33.62
2023-01-15T08:08:46.125Z, 33.60
2023-01-15T08:09:46.134Z, 33.58
2023-01-15T08:10:46.149Z, 33.53
2023-01-15T08:11:46.156Z, 33.51
2023-01-15T08:12:46.162Z, 33.49
2023-01-15T08:13:46.174Z, 33.46
2023-01-15T08:14:46.218Z, 33.43
2023-01-15T08:15:46.223Z, 33.39
2023-01-15T08:16:46.293Z, 33.33
2023-01-15T08:17:46.316Z, 33.32
2023-01-15T08:18:46.261Z, 33.26
2023-01-15T08:19:46.328Z, 33.24
2023-01-15T08:20:47.368Z, 33.23
2023-01-15T08:21:46.343Z, 33.22
2023-01-15T08:22:46.318Z, 33.17
2023-01-15T08:23:46.386Z, 33.16
2023-01-15T08:24:46.314Z, 33.14
2023-01-15T08:25:46.331Z, 33.11
2023-01-15T08:26:46.393Z, 33.08
2023-01-15T08:27:46.368Z, 33.03
2023-01-15T08:28:46.412Z, 33.00
2023-01-15T08:29:46.387Z, 33.01
2023-01-15T08:30:46.390Z, 32.99
2023-01-15T08:31:46.410Z, 32.95
2023-01-15T08:32:46.463Z, 32.90
2023-01-15T08:33:46.467Z, 32.85
2023-01-15T08:34:46.457Z, 32.80
2023-01-15T08:35:46.454Z, 32.79
2023-01-15T08:36:46.511Z, 32.81
2023-01-15T08:37:46.542Z, 32.83
2023-01-15T08:38:46.504Z, 32.77
2023-01-15T08:39:46.510Z, 32.75
2023-01-15T08:40:46.510Z, 32.71
2023-01-15T08:41:46.584Z, 32.71
2023-01-15T08:42:46.566Z, 32.67
2023-01-15T08:43:46.609Z, 32.65
2023-01-15T08:44:46.589Z, 32.62
2023-01-15T08:45:46.662Z, 32.58
2023-01-15T08:46:46.592Z, 32.57
2023-01-15T08:47:46.600Z, 32.56
2023-01-15T08:48:46.591Z, 32.52
2023-01-15T08:49:46.607Z, 32.52
2023-01-15T08:50:46.662Z, 32.47
2023-01-15T08:51:46.626Z, 32.44
2023-01-15T08:52:46.721Z, 32.39
2023-01-15T08:53:46.677Z, 32.42
2023-01-15T08:54:46.744Z, 32.42
2023-01-15T08:55:46.695Z, 32.40
2023-01-15T08:56:46.720Z, 32.35
2023-01-15T08:57:46.691Z, 32.37
2023-01-15T08:58:46.696Z, 32.36
2023-01-15T08:59:46.780Z, 32.30
2023-01-15T09:00:46.869Z, 32.31
2023-01-15T09:01:46.948Z, 32.30
2023-01-15T09:02:49.221Z, 32.25
2023-01-15T09:03:46.760Z, 32.20
2023-01-15T09:04:46.811Z, 32.18
2023-01-15T09:05:46.786Z, 32.18
2023-01-15T09:06:46.807Z, 32.15
2023-01-15T09:07:46.898Z, 32.13
2023-01-15T09:08:46.826Z, 32.11
2023-01-15T09:09:46.842Z, 32.10
2023-01-15T09:10:46.941Z, 32.11
2023-01-15T09:11:46.905Z, 32.04
2023-01-15T09:12:46.948Z, 32.02
2023-01-15T09:13:46.932Z, 31.99
2023-01-15T09:14:57.128Z, 31.97
2023-01-15T09:15:46.929Z, 31.97
2023-01-15T09:16:47.009Z, 31.94
2023-01-15T09:17:46.964Z, 31.92
2023-01-15T09:18:46.995Z, 31.90
2023-01-15T09:19:46.971Z, 31.88
2023-01-15T09:20:46.979Z, 31.81
2023-01-15T09:21:46.995Z, 31.79
2023-01-15T09:22:47.003Z, 31.78
2023-01-15T09:23:47.067Z, 31.80
2023-01-15T09:24:47.044Z, 31.76
2023-01-15T09:25:47.110Z, 31.68
2023-01-15T09:26:47.073Z, 31.67
2023-01-15T09:27:47.074Z, 31.69
2023-01-15T09:28:47.140Z, 31.69
2023-01-15T09:29:47.124Z, 31.66
2023-01-15T09:30:47.240Z, 31.66
2023-01-15T09:31:47.133Z, 31.64
2023-01-15T09:32:47.169Z, 31.62
2023-01-15T09:33:47.156Z, 31.62
2023-01-15T09:34:47.162Z, 31.56
2023-01-15T09:35:47.228Z, 31.54
2023-01-15T09:36:47.207Z, 31.53
2023-01-15T09:37:47.227Z, 31.52
2023-01-15T09:38:47.197Z, 31.49
2023-01-15T09:39:47.237Z, 31.51
2023-01-15T09:40:47.230Z, 31.47
2023-01-15T09:41:47.205Z, 31.43
2023-01-15T09:42:47.259Z, 31.43
2023-01-15T09:43:50.711Z, 31.43
2023-01-15T09:44:47.244Z, 31.41
2023-01-15T09:45:47.282Z, 31.38
2023-01-15T09:46:47.248Z, 31.34
2023-01-15T09:47:47.266Z, 31.36
2023-01-15T09:48:47.298Z, 31.36
2023-01-15T09:49:47.304Z, 31.30
2023-01-15T09:50:47.331Z, 31.28
2023-01-15T09:51:47.356Z, 31.25
2023-01-15T09:52:47.338Z, 31.26
2023-01-15T09:53:47.365Z, 31.26
2023-01-15T09:54:47.375Z, 31.20
2023-01-15T09:55:47.394Z, 31.21
2023-01-15T09:56:47.401Z, 31.18
2023-01-15T09:57:47.418Z, 31.17
2023-01-15T09:58:47.498Z, 31.20
2023-01-15T09:59:47.507Z, 31.20
2023-01-15T10:00:47.505Z, 31.19
2023-01-15T10:01:47.533Z, 31.19
2023-01-15T10:02:47.516Z, 31.14
2023-01-15T10:03:47.634Z, 31.08
2023-01-15T10:04:47.522Z, 31.04
2023-01-15T10:05:47.526Z, 31.05
2023-01-15T10:06:47.607Z, 31.04
2023-01-15T10:07:47.572Z, 31.01
2023-01-15T10:08:47.682Z, 30.97
2023-01-15T10:09:47.603Z, 30.98
2023-01-15T10:10:47.618Z, 30.93
2023-01-15T10:11:47.632Z, 30.94
2023-01-15T10:12:47.631Z, 30.91
2023-01-15T10:13:47.619Z, 30.88
2023-01-15T10:14:47.670Z, 30.88
2023-01-15T10:15:47.713Z, 30.87
2023-01-15T10:16:47.652Z, 30.86
2023-01-15T10:17:48.776Z, 30.85
2023-01-15T10:18:47.711Z, 30.85
2023-01-15T10:19:47.762Z, 30.83
2023-01-15T10:20:47.742Z, 30.79
2023-01-15T10:21:47.769Z, 30.77
2023-01-15T10:22:47.752Z, 30.78
2023-01-15T10:23:47.808Z, 30.75
2023-01-15T10:24:47.780Z, 30.73
2023-01-15T10:25:47.791Z, 30.72
2023-01-15T10:26:47.769Z, 30.70
2023-01-15T10:27:47.828Z, 30.67
2023-01-15T10:28:47.825Z, 30.66
2023-01-15T10:29:47.797Z, 30.65
2023-01-15T10:30:47.937Z, 30.63
2023-01-15T10:31:47.858Z, 30.62
2023-01-15T10:33:01.160Z, 30.62
2023-01-15T10:33:47.925Z, 30.60
2023-01-15T10:34:47.918Z, 30.58
2023-01-15T10:35:47.908Z, 30.58
2023-01-15T10:36:47.943Z, 30.60
2023-01-15T10:37:47.929Z, 30.58
2023-01-15T10:38:47.919Z, 30.55
2023-01-15T10:39:47.921Z, 30.53
2023-01-15T10:40:47.931Z, 30.55
2023-01-15T10:41:47.996Z, 30.51
2023-01-15T10:42:47.964Z, 30.48
2023-01-15T10:43:47.988Z, 30.47
2023-01-15T10:44:47.966Z, 30.47
2023-01-15T10:45:48.048Z, 30.50
2023-01-15T10:46:48.002Z, 30.45
2023-01-15T10:47:47.999Z, 30.43
2023-01-15T10:48:48.007Z, 30.42
2023-01-15T10:49:47.990Z, 30.39
2023-01-15T10:50:48.050Z, 30.37
2023-01-15T10:51:48.019Z, 30.37
2023-01-15T10:52:48.082Z, 30.38
2023-01-15T10:53:48.072Z, 30.38
2023-01-15T10:54:48.092Z, 30.39
2023-01-15T10:55:48.100Z, 30.41
2023-01-15T10:56:48.126Z, 30.36
2023-01-15T10:57:48.097Z, 30.36
2023-01-15T10:58:48.134Z, 30.36
2023-01-15T10:59:48.127Z, 30.36
2023-01-15T11:00:48.162Z, 30.33
2023-01-15T11:01:48.242Z, 31.23
2023-01-15T11:02:48.198Z, 32.13
2023-01-15T11:03:48.190Z, 39.54
2023-01-15T11:04:48.177Z, 43.43
2023-01-15T11:05:48.238Z, 45.00
2023-01-15T11:06:48.206Z, 46.32
2023-01-15T11:08:10.370Z, 44.78
2023-01-15T11:09:07.980Z, 41.98
2023-01-15T11:09:48.261Z, 39.10
2023-01-15T11:10:48.253Z, 36.25
2023-01-15T11:11:48.251Z, 32.90
2023-01-15T11:12:48.249Z, 29.82
2023-01-15T11:13:48.247Z, 27.54
2023-01-15T11:14:48.255Z, 30.23
2023-01-15T11:15:48.299Z, 34.91
2023-01-15T11:16:48.381Z, 38.56
2023-01-15T11:17:48.379Z, 40.95
2023-01-15T11:18:48.356Z, 42.89
2023-01-15T11:19:48.408Z, 44.50
2023-01-15T11:20:48.389Z, 45.54
2023-01-15T11:21:48.417Z, 46.84
2023-01-15T11:22:48.401Z, 45.35
2023-01-15T11:23:48.406Z, 42.61
2023-01-15T11:24:48.403Z, 40.04
2023-01-15T11:25:48.433Z, 37.61
2023-01-15T11:26:48.423Z, 35.56
2023-01-15T11:27:48.437Z, 32.49
2023-01-15T11:28:48.483Z, 30.95
2023-01-15T11:29:48.472Z, 32.93
2023-01-15T11:30:48.567Z, 37.73
2023-01-15T11:31:48.498Z, 44.19
2023-01-15T11:32:48.560Z, 51.05
2023-01-15T11:33:48.547Z, 53.89
2023-01-15T11:34:48.554Z, 54.24
2023-01-15T11:35:48.604Z, 53.93
2023-01-15T11:36:48.564Z, 53.54
2023-01-15T11:37:48.589Z, 53.17
2023-01-15T11:38:48.609Z, 52.79
2023-01-15T11:39:48.648Z, 52.42
2023-01-15T11:40:50.252Z, 52.08
2023-01-15T11:41:48.650Z, 51.75
2023-01-15T11:42:48.665Z, 51.47
2023-01-15T11:43:48.775Z, 51.22
2023-01-15T11:44:48.729Z, 50.97
2023-01-15T11:45:48.722Z, 50.72
2023-01-15T11:46:48.723Z, 50.49
2023-01-15T11:47:48.727Z, 50.26
2023-01-15T11:48:48.754Z, 50.07
2023-01-15T11:49:48.783Z, 49.86
2023-01-15T11:50:48.796Z, 49.68
2023-01-15T11:51:48.836Z, 49.42
2023-01-15T11:52:48.880Z, 49.23
2023-01-15T11:53:48.878Z, 48.98
2023-01-15T11:54:48.870Z, 48.82
2023-01-15T11:55:48.863Z, 48.63
2023-01-15T11:56:48.879Z, 48.44
2023-01-15T11:57:48.925Z, 48.22
2023-01-15T11:58:48.907Z, 48.05
2023-01-15T11:59:48.959Z, 47.89
2023-01-15T12:00:48.985Z, 47.71
2023-01-15T12:01:48.955Z, 47.55
2023-01-15T12:02:49.019Z, 47.36
2023-01-15T12:03:49.092Z, 47.21
2023-01-15T12:04:49.070Z, 47.08
2023-01-15T12:05:49.002Z, 46.89
2023-01-15T12:06:48.994Z, 46.74
2023-01-15T12:07:49.068Z, 46.53
2023-01-15T12:08:49.055Z, 46.40
2023-01-15T12:09:49.062Z, 46.22
2023-01-15T12:10:49.065Z, 46.04
2023-01-15T12:11:49.056Z, 45.87
2023-01-15T12:14:49.538Z, 45.49
2023-01-15T12:15:49.219Z, 45.33
2023-01-15T12:16:49.145Z, 45.20
2023-01-15T12:17:49.163Z, 45.42
2023-01-15T12:18:49.168Z, 47.30
2023-01-15T12:19:49.225Z, 50.46
2023-01-15T12:20:49.227Z, 54.12
2023-01-15T12:21:49.207Z, 57.99
2023-01-15T12:22:49.211Z, 66.05
2023-01-15T12:23:49.209Z, 61.58
2023-01-15T12:24:49.228Z, 52.00
2023-01-15T12:25:49.240Z, 53.19
2023-01-15T12:26:49.308Z, 54.13
2023-01-15T12:27:49.275Z, 56.45
2023-01-15T12:28:49.336Z, 59.32
2023-01-15T12:29:49.309Z, 66.26
2023-01-15T12:30:49.316Z, 60.02